sensor_id;sensor_type;location;lat;lon;timestamp;P1;durP1;ratioP1;P2;durP2;ratioP2
45642;SDS011;31358;46.008;11.144;2023-03-21T00:01:03;29.25;;;20.80;;
45642;SDS011;31358;46.008;11.144;2023-03-21T00:03:30;32.15;;;21.88;;
45642;SDS011;31358;46.008;11.144;2023-03-21T00:05:57;38.10;;;22.33;;
45642;SDS011;31358;46.008;11.144;2023-03-21T00:08:24;39.60;;;21.45;;
45642;SDS011;31358;46.008;11.144;2023-03-21T00:10:57;32.63;;;20.60;;
45642;SDS011;31358;46.008;11.144;2023-03-21T00:13:25;34.50;;;22.20;;
45642;SDS011;31358;46.008;11.144;2023-03-21T00:15:52;31.83;;;20.02;;
45642;SDS011;31358;46.008;11.144;2023-03-21T00:18:22;31.40;;;20.15;;
45642;SDS011;31358;46.008;11.144;2023-03-21T00:20:59;34.25;;;20.45;;
45642;SDS011;31358;46.008;11.144;2023-03-21T00:23:26;29.00;;;20.50;;
45642;SDS011;31358;46.008;11.144;2023-03-21T00:25:53;28.83;;;19.50;;
45642;SDS011;31358;46.008;11.144;2023-03-21T00:28:19;32.60;;;20.15;;
45642;SDS011;31358;46.008;11.144;2023-03-21T00:30:45;29.08;;;18.95;;
45642;SDS011;31358;46.008;11.144;2023-03-21T00:33:10;31.13;;;19.23;;
45642;SDS011;31358;46.008;11.144;2023-03-21T00:35:38;33.25;;;19.52;;
45642;SDS011;31358;46.008;11.144;2023-03-21T00:38:09;32.13;;;20.45;;
45642;SDS011;31358;46.008;11.144;2023-03-21T00:40:35;31.33;;;20.27;;
45642;SDS011;31358;46.008;11.144;2023-03-21T00:43:00;29.58;;;19.55;;
45642;SDS011;31358;46.008;11.144;2023-03-21T00:45:26;33.90;;;22.55;;
45642;SDS011;31358;46.008;11.144;2023-03-21T00:47:52;26.77;;;19.27;;
45642;SDS011;31358;46.008;11.144;2023-03-21T00:50:17;31.95;;;20.00;;
45642;SDS011;31358;46.008;11.144;2023-03-21T00:52:43;34.63;;;19.70;;
45642;SDS011;31358;46.008;11.144;2023-03-21T00:55:11;29.27;;;19.23;;
45642;SDS011;31358;46.008;11.144;2023-03-21T00:57:38;30.17;;;18.58;;
45642;SDS011;31358;46.008;11.144;2023-03-21T01:00:05;29.92;;;18.77;;
45642;SDS011;31358;46.008;11.144;2023-03-21T01:02:34;31.33;;;19.15;;
45642;SDS011;31358;46.008;11.144;2023-03-21T01:05:02;31.95;;;18.92;;
45642;SDS011;31358;46.008;11.144;2023-03-21T01:07:28;30.95;;;19.15;;
45642;SDS011;31358;46.008;11.144;2023-03-21T01:09:54;29.80;;;18.02;;
45642;SDS011;31358;46.008;11.144;2023-03-21T01:12:20;33.20;;;19.98;;
45642;SDS011;31358;46.008;11.144;2023-03-21T01:14:46;29.08;;;18.60;;
45642;SDS011;31358;46.008;11.144;2023-03-21T01:17:12;28.25;;;18.42;;
45642;SDS011;31358;46.008;11.144;2023-03-21T01:19:37;31.30;;;19.35;;
45642;SDS011;31358;46.008;11.144;2023-03-21T01:22:03;25.88;;;17.45;;
45642;SDS011;31358;46.008;11.144;2023-03-21T01:24:29;28.15;;;16.48;;
45642;SDS011;31358;46.008;11.144;2023-03-21T01:26:55;29.00;;;20.05;;
45642;SDS011;31358;46.008;11.144;2023-03-21T01:29:21;28.65;;;19.05;;
45642;SDS011;31358;46.008;11.144;2023-03-21T01:31:46;36.17;;;23.10;;
45642;SDS011;31358;46.008;11.144;2023-03-21T01:34:12;37.60;;;23.50;;
45642;SDS011;31358;46.008;11.144;2023-03-21T01:36:38;42.22;;;24.92;;
45642;SDS011;31358;46.008;11.144;2023-03-21T01:39:04;34.47;;;21.58;;
45642;SDS011;31358;46.008;11.144;2023-03-21T01:41:32;34.38;;;22.10;;
45642;SDS011;31358;46.008;11.144;2023-03-21T01:44:03;31.98;;;20.80;;
45642;SDS011;31358;46.008;11.144;2023-03-21T01:49:20;35.40;;;21.70;;
45642;SDS011;31358;46.008;11.144;2023-03-21T01:51:59;29.33;;;19.37;;
45642;SDS011;31358;46.008;11.144;2023-03-21T01:54:29;28.63;;;19.27;;
45642;SDS011;31358;46.008;11.144;2023-03-21T01:57:02;32.92;;;20.30;;
45642;SDS011;31358;46.008;11.144;2023-03-21T01:59:35;38.22;;;20.95;;
45642;SDS011;31358;46.008;11.144;2023-03-21T02:02:05;32.33;;;20.27;;
45642;SDS011;31358;46.008;11.144;2023-03-21T02:04:42;32.60;;;20.70;;
45642;SDS011;31358;46.008;11.144;2023-03-21T02:07:23;33.60;;;18.95;;
45642;SDS011;31358;46.008;11.144;2023-03-21T02:09:53;30.52;;;20.60;;
45642;SDS011;31358;46.008;11.144;2023-03-21T02:12:20;32.58;;;20.17;;
45642;SDS011;31358;46.008;11.144;2023-03-21T02:14:46;32.20;;;21.27;;
45642;SDS011;31358;46.008;11.144;2023-03-21T02:33:58;37.72;;;24.10;;
45642;SDS011;31358;46.008;11.144;2023-03-21T02:42:14;34.40;;;19.95;;
45642;SDS011;31358;46.008;11.144;2023-03-21T02:47:43;29.35;;;19.10;;
45642;SDS011;31358;46.008;11.144;2023-03-21T02:52:54;32.38;;;19.90;;
45642;SDS011;31358;46.008;11.144;2023-03-21T02:55:26;34.47;;;20.48;;
45642;SDS011;31358;46.008;11.144;2023-03-21T02:57:54;33.63;;;21.85;;
45642;SDS011;31358;46.008;11.144;2023-03-21T03:00:25;33.58;;;21.10;;
45642;SDS011;31358;46.008;11.144;2023-03-21T03:02:53;34.65;;;21.70;;
45642;SDS011;31358;46.008;11.144;2023-03-21T03:05:23;34.40;;;20.80;;
45642;SDS011;31358;46.008;11.144;2023-03-21T03:07:56;30.08;;;19.40;;
45642;SDS011;31358;46.008;11.144;2023-03-21T03:13:20;34.63;;;21.77;;
45642;SDS011;31358;46.008;11.144;2023-03-21T03:21:19;37.58;;;23.30;;
45642;SDS011;31358;46.008;11.144;2023-03-21T03:23:51;36.67;;;22.95;;
45642;SDS011;31358;46.008;11.144;2023-03-21T03:26:25;34.08;;;22.00;;
45642;SDS011;31358;46.008;11.144;2023-03-21T03:29:08;40.40;;;25.10;;
45642;SDS011;31358;46.008;11.144;2023-03-21T03:31:38;37.72;;;24.08;;
45642;SDS011;31358;46.008;11.144;2023-03-21T03:34:09;40.35;;;23.73;;
45642;SDS011;31358;46.008;11.144;2023-03-21T03:36:38;33.78;;;22.23;;
45642;SDS011;31358;46.008;11.144;2023-03-21T03:39:08;36.33;;;23.10;;
45642;SDS011;31358;46.008;11.144;2023-03-21T03:44:53;38.22;;;23.30;;
45642;SDS011;31358;46.008;11.144;2023-03-21T03:47:21;37.55;;;23.73;;
45642;SDS011;31358;46.008;11.144;2023-03-21T03:50:08;38.63;;;23.52;;
45642;SDS011;31358;46.008;11.144;2023-03-21T03:52:46;44.85;;;26.33;;
45642;SDS011;31358;46.008;11.144;2023-03-21T03:55:15;38.45;;;24.85;;
45642;SDS011;31358;46.008;11.144;2023-03-21T03:57:43;41.58;;;26.88;;
45642;SDS011;31358;46.008;11.144;2023-03-21T04:00:10;40.30;;;26.13;;
45642;SDS011;31358;46.008;11.144;2023-03-21T04:02:37;37.47;;;23.25;;
45642;SDS011;31358;46.008;11.144;2023-03-21T04:05:03;40.30;;;25.83;;
45642;SDS011;31358;46.008;11.144;2023-03-21T04:07:29;40.45;;;26.05;;
45642;SDS011;31358;46.008;11.144;2023-03-21T04:09:55;42.03;;;26.10;;
45642;SDS011;31358;46.008;11.144;2023-03-21T04:12:22;53.33;;;28.92;;
45642;SDS011;31358;46.008;11.144;2023-03-21T04:14:48;42.20;;;26.92;;
45642;SDS011;31358;46.008;11.144;2023-03-21T04:17:14;44.42;;;26.42;;
45642;SDS011;31358;46.008;11.144;2023-03-21T04:19:41;39.75;;;24.55;;
45642;SDS011;31358;46.008;11.144;2023-03-21T04:22:07;38.88;;;26.55;;
45642;SDS011;31358;46.008;11.144;2023-03-21T04:24:33;43.47;;;25.10;;
45642;SDS011;31358;46.008;11.144;2023-03-21T04:27:01;39.92;;;26.75;;
45642;SDS011;31358;46.008;11.144;2023-03-21T04:29:27;49.83;;;29.98;;
45642;SDS011;31358;46.008;11.144;2023-03-21T04:31:53;44.65;;;29.40;;
45642;SDS011;31358;46.008;11.144;2023-03-21T04:34:19;40.55;;;27.88;;
45642;SDS011;31358;46.008;11.144;2023-03-21T04:36:48;36.88;;;24.20;;
45642;SDS011;31358;46.008;11.144;2023-03-21T04:39:14;41.42;;;25.08;;
45642;SDS011;31358;46.008;11.144;2023-03-21T04:41:42;35.58;;;23.52;;
45642;SDS011;31358;46.008;11.144;2023-03-21T04:44:09;39.65;;;24.45;;
45642;SDS011;31358;46.008;11.144;2023-03-21T04:46:36;35.90;;;22.15;;
45642;SDS011;31358;46.008;11.144;2023-03-21T04:49:03;39.75;;;22.65;;
45642;SDS011;31358;46.008;11.144;2023-03-21T04:51:30;35.67;;;23.55;;
45642;SDS011;31358;46.008;11.144;2023-03-21T04:53:56;36.22;;;22.15;;
45642;SDS011;31358;46.008;11.144;2023-03-21T04:56:23;36.90;;;22.77;;
45642;SDS011;31358;46.008;11.144;2023-03-21T04:58:56;35.13;;;22.77;;
45642;SDS011;31358;46.008;11.144;2023-03-21T05:01:26;34.22;;;20.88;;
45642;SDS011;31358;46.008;11.144;2023-03-21T05:03:58;32.00;;;20.67;;
45642;SDS011;31358;46.008;11.144;2023-03-21T05:06:24;35.63;;;21.58;;
45642;SDS011;31358;46.008;11.144;2023-03-21T05:08:52;34.97;;;19.10;;
45642;SDS011;31358;46.008;11.144;2023-03-21T05:11:20;31.80;;;20.30;;
45642;SDS011;31358;46.008;11.144;2023-03-21T05:13:46;36.90;;;23.63;;
45642;SDS011;31358;46.008;11.144;2023-03-21T05:16:12;35.30;;;20.63;;
45642;SDS011;31358;46.008;11.144;2023-03-21T05:18:37;34.10;;;21.17;;
45642;SDS011;31358;46.008;11.144;2023-03-21T05:21:03;34.45;;;21.92;;
45642;SDS011;31358;46.008;11.144;2023-03-21T05:23:31;37.17;;;22.42;;
45642;SDS011;31358;46.008;11.144;2023-03-21T05:26:03;34.30;;;22.42;;
45642;SDS011;31358;46.008;11.144;2023-03-21T05:28:30;33.15;;;22.48;;
45642;SDS011;31358;46.008;11.144;2023-03-21T05:31:01;40.88;;;25.45;;
45642;SDS011;31358;46.008;11.144;2023-03-21T05:33:27;38.67;;;25.30;;
45642;SDS011;31358;46.008;11.144;2023-03-21T05:35:53;41.00;;;25.40;;
45642;SDS011;31358;46.008;11.144;2023-03-21T05:38:19;36.40;;;23.08;;
45642;SDS011;31358;46.008;11.144;2023-03-21T05:40:46;34.33;;;21.88;;
45642;SDS011;31358;46.008;11.144;2023-03-21T05:43:12;32.90;;;21.40;;
45642;SDS011;31358;46.008;11.144;2023-03-21T05:45:38;30.45;;;21.45;;
45642;SDS011;31358;46.008;11.144;2023-03-21T05:48:03;35.55;;;22.60;;
45642;SDS011;31358;46.008;11.144;2023-03-21T05:50:29;34.80;;;21.40;;
45642;SDS011;31358;46.008;11.144;2023-03-21T05:52:55;30.85;;;20.02;;
45642;SDS011;31358;46.008;11.144;2023-03-21T05:55:21;32.33;;;21.45;;
45642;SDS011;31358;46.008;11.144;2023-03-21T05:57:47;33.60;;;22.33;;
45642;SDS011;31358;46.008;11.144;2023-03-21T06:00:13;31.73;;;20.60;;
45642;SDS011;31358;46.008;11.144;2023-03-21T06:02:39;35.90;;;21.70;;
45642;SDS011;31358;46.008;11.144;2023-03-21T06:05:05;37.03;;;21.13;;
45642;SDS011;31358;46.008;11.144;2023-03-21T06:07:31;37.90;;;23.63;;
45642;SDS011;31358;46.008;11.144;2023-03-21T06:09:57;31.08;;;21.42;;
45642;SDS011;31358;46.008;11.144;2023-03-21T06:12:23;30.58;;;21.00;;
45642;SDS011;31358;46.008;11.144;2023-03-21T06:14:48;34.20;;;21.95;;
45642;SDS011;31358;46.008;11.144;2023-03-21T06:17:14;32.92;;;20.90;;
45642;SDS011;31358;46.008;11.144;2023-03-21T06:19:40;34.17;;;23.40;;
45642;SDS011;31358;46.008;11.144;2023-03-21T06:22:06;38.20;;;23.35;;
45642;SDS011;31358;46.008;11.144;2023-03-21T06:24:31;33.20;;;20.02;;
45642;SDS011;31358;46.008;11.144;2023-03-21T06:26:57;40.58;;;22.52;;
45642;SDS011;31358;46.008;11.144;2023-03-21T06:29:23;33.85;;;21.70;;
45642;SDS011;31358;46.008;11.144;2023-03-21T06:31:48;30.83;;;21.02;;
45642;SDS011;31358;46.008;11.144;2023-03-21T06:34:14;36.47;;;21.90;;
45642;SDS011;31358;46.008;11.144;2023-03-21T06:36:40;32.22;;;21.48;;
45642;SDS011;31358;46.008;11.144;2023-03-21T06:39:08;30.50;;;19.42;;
45642;SDS011;31358;46.008;11.144;2023-03-21T06:41:35;32.80;;;21.85;;
45642;SDS011;31358;46.008;11.144;2023-03-21T06:44:00;33.78;;;22.40;;
45642;SDS011;31358;46.008;11.144;2023-03-21T06:46:26;37.22;;;22.50;;
45642;SDS011;31358;46.008;11.144;2023-03-21T06:48:52;30.33;;;20.92;;
45642;SDS011;31358;46.008;11.144;2023-03-21T06:51:18;31.27;;;20.70;;
45642;SDS011;31358;46.008;11.144;2023-03-21T06:53:44;33.35;;;22.42;;
45642;SDS011;31358;46.008;11.144;2023-03-21T06:56:10;30.92;;;20.20;;
45642;SDS011;31358;46.008;11.144;2023-03-21T06:58:37;33.70;;;21.40;;
45642;SDS011;31358;46.008;11.144;2023-03-21T07:01:04;30.67;;;21.70;;
45642;SDS011;31358;46.008;11.144;2023-03-21T07:03:30;37.05;;;22.88;;
45642;SDS011;31358;46.008;11.144;2023-03-21T07:06:03;34.22;;;21.00;;
45642;SDS011;31358;46.008;11.144;2023-03-21T07:08:30;34.90;;;21.52;;
45642;SDS011;31358;46.008;11.144;2023-03-21T07:10:56;29.95;;;22.25;;
45642;SDS011;31358;46.008;11.144;2023-03-21T07:13:22;31.15;;;20.42;;
45642;SDS011;31358;46.008;11.144;2023-03-21T07:15:47;33.35;;;20.08;;
45642;SDS011;31358;46.008;11.144;2023-03-21T07:18:13;34.28;;;23.52;;
45642;SDS011;31358;46.008;11.144;2023-03-21T07:20:39;32.85;;;23.08;;
45642;SDS011;31358;46.008;11.144;2023-03-21T07:23:05;30.10;;;19.58;;
45642;SDS011;31358;46.008;11.144;2023-03-21T07:25:31;31.98;;;21.48;;
45642;SDS011;31358;46.008;11.144;2023-03-21T07:27:57;30.35;;;20.13;;
45642;SDS011;31358;46.008;11.144;2023-03-21T07:30:23;30.52;;;20.90;;
45642;SDS011;31358;46.008;11.144;2023-03-21T07:32:49;35.95;;;21.35;;
45642;SDS011;31358;46.008;11.144;2023-03-21T07:35:15;28.23;;;19.13;;
45642;SDS011;31358;46.008;11.144;2023-03-21T07:37:42;31.77;;;20.95;;
45642;SDS011;31358;46.008;11.144;2023-03-21T07:40:08;30.00;;;20.27;;
45642;SDS011;31358;46.008;11.144;2023-03-21T07:42:36;33.03;;;21.33;;
45642;SDS011;31358;46.008;11.144;2023-03-21T07:45:06;36.00;;;22.13;;
45642;SDS011;31358;46.008;11.144;2023-03-21T07:47:33;31.45;;;20.00;;
45642;SDS011;31358;46.008;11.144;2023-03-21T07:49:59;27.33;;;18.92;;
45642;SDS011;31358;46.008;11.144;2023-03-21T07:52:25;31.00;;;21.08;;
45642;SDS011;31358;46.008;11.144;2023-03-21T07:54:51;36.50;;;21.73;;
45642;SDS011;31358;46.008;11.144;2023-03-21T07:57:17;32.40;;;21.13;;
45642;SDS011;31358;46.008;11.144;2023-03-21T07:59:42;28.75;;;19.73;;
45642;SDS011;31358;46.008;11.144;2023-03-21T08:02:15;34.95;;;22.27;;
45642;SDS011;31358;46.008;11.144;2023-03-21T08:04:41;33.47;;;20.42;;
45642;SDS011;31358;46.008;11.144;2023-03-21T08:07:08;31.27;;;21.38;;
45642;SDS011;31358;46.008;11.144;2023-03-21T08:09:34;57.90;;;20.90;;
45642;SDS011;31358;46.008;11.144;2023-03-21T08:12:00;30.80;;;20.30;;
45642;SDS011;31358;46.008;11.144;2023-03-21T08:14:27;34.72;;;20.60;;
45642;SDS011;31358;46.008;11.144;2023-03-21T08:16:52;30.80;;;20.27;;
45642;SDS011;31358;46.008;11.144;2023-03-21T08:19:18;27.15;;;19.15;;
45642;SDS011;31358;46.008;11.144;2023-03-21T08:21:46;30.70;;;20.90;;
45642;SDS011;31358;46.008;11.144;2023-03-21T08:24:13;30.60;;;20.70;;
45642;SDS011;31358;46.008;11.144;2023-03-21T08:26:40;31.63;;;20.83;;
45642;SDS011;31358;46.008;11.144;2023-03-21T08:29:06;28.95;;;19.77;;
45642;SDS011;31358;46.008;11.144;2023-03-21T08:31:32;29.30;;;19.70;;
45642;SDS011;31358;46.008;11.144;2023-03-21T08:33:58;52.30;;;41.72;;
45642;SDS011;31358;46.008;11.144;2023-03-21T08:36:24;45.85;;;22.65;;
45642;SDS011;31358;46.008;11.144;2023-03-21T08:38:51;33.03;;;18.80;;
45642;SDS011;31358;46.008;11.144;2023-03-21T08:41:18;37.20;;;20.58;;
45642;SDS011;31358;46.008;11.144;2023-03-21T08:43:46;28.45;;;20.35;;
45642;SDS011;31358;46.008;11.144;2023-03-21T08:46:13;30.05;;;20.25;;
45642;SDS011;31358;46.008;11.144;2023-03-21T08:48:38;29.88;;;19.33;;
45642;SDS011;31358;46.008;11.144;2023-03-21T08:51:04;27.40;;;19.65;;
45642;SDS011;31358;46.008;11.144;2023-03-21T08:53:30;30.25;;;18.55;;
45642;SDS011;31358;46.008;11.144;2023-03-21T08:55:57;28.48;;;19.08;;
45642;SDS011;31358;46.008;11.144;2023-03-21T08:58:22;24.05;;;17.63;;
45642;SDS011;31358;46.008;11.144;2023-03-21T09:00:48;25.83;;;18.17;;
45642;SDS011;31358;46.008;11.144;2023-03-21T09:03:15;29.05;;;19.83;;
45642;SDS011;31358;46.008;11.144;2023-03-21T09:05:40;24.33;;;17.67;;
45642;SDS011;31358;46.008;11.144;2023-03-21T09:08:09;27.45;;;17.67;;
45642;SDS011;31358;46.008;11.144;2023-03-21T09:10:37;27.42;;;17.52;;
45642;SDS011;31358;46.008;11.144;2023-03-21T09:13:03;26.33;;;17.05;;
45642;SDS011;31358;46.008;11.144;2023-03-21T09:15:29;25.20;;;18.73;;
45642;SDS011;31358;46.008;11.144;2023-03-21T09:17:55;25.58;;;18.75;;
45642;SDS011;31358;46.008;11.144;2023-03-21T09:20:23;26.23;;;17.40;;
45642;SDS011;31358;46.008;11.144;2023-03-21T09:22:54;26.30;;;18.55;;
45642;SDS011;31358;46.008;11.144;2023-03-21T09:25:21;27.23;;;17.50;;
45642;SDS011;31358;46.008;11.144;2023-03-21T09:27:48;23.60;;;16.70;;
45642;SDS011;31358;46.008;11.144;2023-03-21T09:30:16;23.63;;;16.75;;
45642;SDS011;31358;46.008;11.144;2023-03-21T09:32:44;24.13;;;15.43;;
45642;SDS011;31358;46.008;11.144;2023-03-21T09:35:14;27.02;;;17.27;;
45642;SDS011;31358;46.008;11.144;2023-03-21T09:37:42;24.83;;;16.92;;
45642;SDS011;31358;46.008;11.144;2023-03-21T09:48:48;22.70;;;15.80;;
45642;SDS011;31358;46.008;11.144;2023-03-21T09:51:22;29.15;;;17.05;;
45642;SDS011;31358;46.008;11.144;2023-03-21T09:59:18;27.77;;;17.98;;
45642;SDS011;31358;46.008;11.144;2023-03-21T10:02:00;24.77;;;17.13;;
45642;SDS011;31358;46.008;11.144;2023-03-21T10:04:28;28.45;;;17.65;;
45642;SDS011;31358;46.008;11.144;2023-03-21T10:06:56;25.38;;;17.55;;
45642;SDS011;31358;46.008;11.144;2023-03-21T10:09:25;27.05;;;17.15;;
45642;SDS011;31358;46.008;11.144;2023-03-21T10:12:01;34.20;;;17.83;;
45642;SDS011;31358;46.008;11.144;2023-03-21T10:14:34;24.05;;;17.27;;
45642;SDS011;31358;46.008;11.144;2023-03-21T10:17:12;25.40;;;18.17;;
45642;SDS011;31358;46.008;11.144;2023-03-21T10:19:48;24.65;;;16.75;;
45642;SDS011;31358;46.008;11.144;2023-03-21T10:22:22;26.00;;;18.10;;
45642;SDS011;31358;46.008;11.144;2023-03-21T10:24:48;24.45;;;16.70;;
45642;SDS011;31358;46.008;11.144;2023-03-21T10:27:14;22.92;;;17.35;;
45642;SDS011;31358;46.008;11.144;2023-03-21T10:29:41;23.25;;;17.23;;
45642;SDS011;31358;46.008;11.144;2023-03-21T10:32:10;27.88;;;18.52;;
45642;SDS011;31358;46.008;11.144;2023-03-21T10:34:41;27.30;;;17.38;;
45642;SDS011;31358;46.008;11.144;2023-03-21T10:37:09;22.60;;;17.67;;
45642;SDS011;31358;46.008;11.144;2023-03-21T10:39:38;26.60;;;17.25;;
45642;SDS011;31358;46.008;11.144;2023-03-21T10:42:07;26.58;;;16.45;;
45642;SDS011;31358;46.008;11.144;2023-03-21T10:44:42;27.88;;;16.70;;
45642;SDS011;31358;46.008;11.144;2023-03-21T10:47:12;24.73;;;15.85;;
45642;SDS011;31358;46.008;11.144;2023-03-21T10:49:45;22.48;;;16.10;;
45642;SDS011;31358;46.008;11.144;2023-03-21T10:52:12;23.92;;;16.88;;
45642;SDS011;31358;46.008;11.144;2023-03-21T10:54:45;28.08;;;16.38;;
45642;SDS011;31358;46.008;11.144;2023-03-21T10:57:16;23.77;;;16.70;;
45642;SDS011;31358;46.008;11.144;2023-03-21T10:59:54;23.77;;;17.35;;
45642;SDS011;31358;46.008;11.144;2023-03-21T11:02:30;21.65;;;16.38;;
45642;SDS011;31358;46.008;11.144;2023-03-21T11:05:16;26.65;;;15.15;;
45642;SDS011;31358;46.008;11.144;2023-03-21T11:07:42;23.07;;;16.23;;
45642;SDS011;31358;46.008;11.144;2023-03-21T11:10:15;23.23;;;16.45;;
45642;SDS011;31358;46.008;11.144;2023-03-21T11:12:54;23.63;;;15.63;;
45642;SDS011;31358;46.008;11.144;2023-03-21T11:15:41;20.48;;;15.88;;
45642;SDS011;31358;46.008;11.144;2023-03-21T11:21:01;22.63;;;14.98;;
45642;SDS011;31358;46.008;11.144;2023-03-21T11:23:33;20.73;;;13.63;;
45642;SDS011;31358;46.008;11.144;2023-03-21T11:26:02;20.15;;;13.65;;
45642;SDS011;31358;46.008;11.144;2023-03-21T11:28:40;20.70;;;13.38;;
45642;SDS011;31358;46.008;11.144;2023-03-21T11:31:08;17.27;;;13.38;;
45642;SDS011;31358;46.008;11.144;2023-03-21T11:33:36;18.45;;;14.02;;
45642;SDS011;31358;46.008;11.144;2023-03-21T11:38:48;19.90;;;13.15;;
45642;SDS011;31358;46.008;11.144;2023-03-21T11:41:23;17.27;;;11.85;;
45642;SDS011;31358;46.008;11.144;2023-03-21T11:43:55;16.90;;;11.80;;
45642;SDS011;31358;46.008;11.144;2023-03-21T11:46:24;19.98;;;13.25;;
45642;SDS011;31358;46.008;11.144;2023-03-21T11:48:52;22.33;;;14.18;;
45642;SDS011;31358;46.008;11.144;2023-03-21T11:54:27;19.40;;;12.57;;
45642;SDS011;31358;46.008;11.144;2023-03-21T11:57:58;17.52;;;12.73;;
45642;SDS011;31358;46.008;11.144;2023-03-21T12:00:30;17.40;;;11.82;;
45642;SDS011;31358;46.008;11.144;2023-03-21T12:05:51;17.48;;;11.18;;
45642;SDS011;31358;46.008;11.144;2023-03-21T12:11:07;17.13;;;11.95;;
45642;SDS011;31358;46.008;11.144;2023-03-21T12:25:53;18.55;;;13.57;;
45642;SDS011;31358;46.008;11.144;2023-03-21T12:45:41;19.80;;;12.98;;
45642;SDS011;31358;46.008;11.144;2023-03-21T12:48:41;23.13;;;14.73;;
45642;SDS011;31358;46.008;11.144;2023-03-21T12:50:41;17.88;;;13.10;;
45642;SDS011;31358;46.008;11.144;2023-03-21T12:55:44;18.83;;;14.32;;
45642;SDS011;31358;46.008;11.144;2023-03-21T12:58:13;17.15;;;13.82;;
45642;SDS011;31358;46.008;11.144;2023-03-21T13:00:50;20.55;;;13.43;;
45642;SDS011;31358;46.008;11.144;2023-03-21T13:03:28;19.02;;;13.10;;
45642;SDS011;31358;46.008;11.144;2023-03-21T13:06:12;17.55;;;12.48;;
45642;SDS011;31358;46.008;11.144;2023-03-21T13:08:59;19.55;;;12.88;;
45642;SDS011;31358;46.008;11.144;2023-03-21T13:11:31;25.25;;;13.35;;
45642;SDS011;31358;46.008;11.144;2023-03-21T13:16:50;16.42;;;11.98;;
45642;SDS011;31358;46.008;11.144;2023-03-21T13:24:41;18.85;;;12.80;;
45642;SDS011;31358;46.008;11.144;2023-03-21T13:30:17;18.33;;;12.57;;
45642;SDS011;31358;46.008;11.144;2023-03-21T13:32:47;17.80;;;12.40;;
45642;SDS011;31358;46.008;11.144;2023-03-21T13:35:17;16.50;;;10.88;;
45642;SDS011;31358;46.008;11.144;2023-03-21T13:37:49;17.17;;;11.90;;
45642;SDS011;31358;46.008;11.144;2023-03-21T13:40:24;16.13;;;11.48;;
45642;SDS011;31358;46.008;11.144;2023-03-21T13:42:53;16.67;;;10.65;;
45642;SDS011;31358;46.008;11.144;2023-03-21T13:45:31;15.68;;;9.55;;
45642;SDS011;31358;46.008;11.144;2023-03-21T13:47:59;14.70;;;10.30;;
45642;SDS011;31358;46.008;11.144;2023-03-21T13:55:26;10.95;;;8.70;;
45642;SDS011;31358;46.008;11.144;2023-03-21T13:57:54;18.17;;;9.70;;
45642;SDS011;31358;46.008;11.144;2023-03-21T14:00:30;15.65;;;8.93;;
45642;SDS011;31358;46.008;11.144;2023-03-21T14:02:59;20.52;;;12.35;;
45642;SDS011;31358;46.008;11.144;2023-03-21T14:05:28;18.98;;;11.95;;
45642;SDS011;31358;46.008;11.144;2023-03-21T14:07:55;16.95;;;10.45;;
45642;SDS011;31358;46.008;11.144;2023-03-21T14:10:29;18.05;;;10.57;;
45642;SDS011;31358;46.008;11.144;2023-03-21T14:12:59;14.73;;;10.40;;
45642;SDS011;31358;46.008;11.144;2023-03-21T14:15:30;17.42;;;11.90;;
45642;SDS011;31358;46.008;11.144;2023-03-21T14:18:19;22.50;;;11.55;;
45642;SDS011;31358;46.008;11.144;2023-03-21T14:20:51;17.80;;;11.40;;
45642;SDS011;31358;46.008;11.144;2023-03-21T14:23:18;16.00;;;11.15;;
45642;SDS011;31358;46.008;11.144;2023-03-21T14:25:44;17.77;;;11.63;;
45642;SDS011;31358;46.008;11.144;2023-03-21T14:28:14;19.15;;;10.18;;
45642;SDS011;31358;46.008;11.144;2023-03-21T14:30:58;18.08;;;11.63;;
45642;SDS011;31358;46.008;11.144;2023-03-21T14:33:35;15.38;;;9.50;;
45642;SDS011;31358;46.008;11.144;2023-03-21T14:36:08;13.02;;;8.75;;
45642;SDS011;31358;46.008;11.144;2023-03-21T14:38:38;18.45;;;11.27;;
45642;SDS011;31358;46.008;11.144;2023-03-21T14:41:04;15.77;;;11.32;;
45642;SDS011;31358;46.008;11.144;2023-03-21T14:43:44;23.58;;;12.40;;
45642;SDS011;31358;46.008;11.144;2023-03-21T14:46:11;16.33;;;11.38;;
45642;SDS011;31358;46.008;11.144;2023-03-21T14:48:37;21.92;;;12.20;;
45642;SDS011;31358;46.008;11.144;2023-03-21T14:51:03;22.00;;;12.40;;
45642;SDS011;31358;46.008;11.144;2023-03-21T14:53:37;18.65;;;12.27;;
45642;SDS011;31358;46.008;11.144;2023-03-21T14:58:30;17.55;;;12.48;;
45642;SDS011;31358;46.008;11.144;2023-03-21T15:01:00;21.85;;;13.85;;
45642;SDS011;31358;46.008;11.144;2023-03-21T15:03:28;20.10;;;13.50;;
45642;SDS011;31358;46.008;11.144;2023-03-21T15:05:55;17.63;;;12.10;;
45642;SDS011;31358;46.008;11.144;2023-03-21T15:08:25;24.38;;;14.25;;
45642;SDS011;31358;46.008;11.144;2023-03-21T15:11:06;16.38;;;11.82;;
45642;SDS011;31358;46.008;11.144;2023-03-21T15:13:36;20.15;;;11.50;;
45642;SDS011;31358;46.008;11.144;2023-03-21T15:16:07;22.42;;;12.82;;
45642;SDS011;31358;46.008;11.144;2023-03-21T15:18:36;21.52;;;13.32;;
45642;SDS011;31358;46.008;11.144;2023-03-21T15:21:04;24.27;;;12.57;;
45642;SDS011;31358;46.008;11.144;2023-03-21T15:23:46;22.40;;;11.93;;
45642;SDS011;31358;46.008;11.144;2023-03-21T15:26:16;18.95;;;12.68;;
45642;SDS011;31358;46.008;11.144;2023-03-21T15:28:44;20.98;;;12.30;;
45642;SDS011;31358;46.008;11.144;2023-03-21T15:31:16;18.25;;;12.57;;
45642;SDS011;31358;46.008;11.144;2023-03-21T15:33:47;16.30;;;11.38;;
45642;SDS011;31358;46.008;11.144;2023-03-21T15:36:22;20.33;;;12.48;;
45642;SDS011;31358;46.008;11.144;2023-03-21T15:38:50;23.05;;;13.77;;
45642;SDS011;31358;46.008;11.144;2023-03-21T15:43:43;22.65;;;13.57;;
45642;SDS011;31358;46.008;11.144;2023-03-21T15:46:16;22.65;;;13.50;;
45642;SDS011;31358;46.008;11.144;2023-03-21T15:49:08;19.50;;;13.68;;
45642;SDS011;31358;46.008;11.144;2023-03-21T15:51:37;32.95;;;20.73;;
45642;SDS011;31358;46.008;11.144;2023-03-21T15:54:03;21.60;;;14.18;;
45642;SDS011;31358;46.008;11.144;2023-03-21T15:56:31;24.00;;;13.90;;
45642;SDS011;31358;46.008;11.144;2023-03-21T15:59:00;22.63;;;13.77;;
45642;SDS011;31358;46.008;11.144;2023-03-21T16:01:29;26.63;;;15.27;;
45642;SDS011;31358;46.008;11.144;2023-03-21T16:04:04;21.35;;;14.65;;
45642;SDS011;31358;46.008;11.144;2023-03-21T16:06:33;24.15;;;14.10;;
45642;SDS011;31358;46.008;11.144;2023-03-21T16:11:48;34.42;;;14.65;;
45642;SDS011;31358;46.008;11.144;2023-03-21T16:14:15;21.60;;;13.68;;
45642;SDS011;31358;46.008;11.144;2023-03-21T16:16:42;29.67;;;13.65;;
45642;SDS011;31358;46.008;11.144;2023-03-21T16:19:09;19.63;;;12.93;;
45642;SDS011;31358;46.008;11.144;2023-03-21T16:21:35;19.63;;;13.43;;
45642;SDS011;31358;46.008;11.144;2023-03-21T16:24:02;19.38;;;12.77;;
45642;SDS011;31358;46.008;11.144;2023-03-21T16:26:30;23.05;;;13.93;;